Time;durP1;ratioP1;P1;durP2;ratioP2;P2;SDS_P1;SDS_P2;PMS_P1;PMS_P2;Temp;Humidity;BMP_temperature;BMP_pressure;BME280_temperature;BME280_humidity;BME280_pressure;Samples;Min_cycle;Max_cycle;Signal;HPM_P1;HPM_P2
2022/10/04 00:02:21;;;;;;;15.40;8.07;;;;;;;;;;6212588;28;20093;-83
2022/10/04 00:05:23;;;;;;;17.58;7.80;;;;;;;;;;6225218;28;20050;-85
2022/10/04 00:08:31;;;;;;;24.70;8.65;;;;;;;;;;6208471;28;20050;-84
2022/10/04 00:11:42;;;;;;;27.60;8.30;;;;;;;;;;6209341;28;20049;-83
2022/10/04 00:15:02;;;;;;;29.38;8.25;;;;;;;;;;6208001;28;20067;-84
2022/10/04 00:18:10;;;;;;;16.77;7.57;;;;;;;;;;6211579;28;20077;-84
2022/10/04 00:21:12;;;;;;;28.40;8.93;;;;;;;;;;6190350;28;20109;-84
2022/10/04 00:24:23;;;;;;;17.23;7.53;;;;;;;;;;6214819;28;20065;-85
2022/10/04 00:27:27;;;;;;;19.17;8.23;;;;;;;;;;6224055;28;20048;-87
2022/10/04 00:30:35;;;;;;;;;;;;;;;;;;6207511;28;20476;-83
2022/10/04 00:33:41;;;;;;;30.13;7.60;;;;;;;;;;6189028;28;19921;-84
2022/10/04 00:36:56;;;;;;;19.25;7.95;;;;;;;;;;6210453;28;20042;-84
2022/10/04 00:40:13;;;;;;;62.30;8.63;;;;;;;;;;6205349;28;20669;-85
2022/10/04 00:43:41;;;;;;;22.02;7.75;;;;;;;;;;6223177;28;20161;-85
2022/10/04 00:46:44;;;;;;;45.38;8.70;;;;;;;;;;6209417;28;20045;-84
2022/10/04 00:49:50;;;;;;;14.40;7.20;;;;;;;;;;6170361;28;20038;-85
2022/10/04 00:52:57;;;;;;;14.88;6.93;;;;;;;;;;6217024;28;20068;-85
2022/10/04 00:56:02;;;;;;;69.03;9.23;;;;;;;;;;6223236;28;20050;-86
2022/10/04 00:59:15;;;;;;;25.73;8.18;;;;;;;;;;6216190;28;20047;-84
2022/10/04 01:02:20;;;;;;;16.90;7.33;;;;;;;;;;6199978;28;20060;-84
2022/10/04 01:05:29;;;;;;;27.95;7.80;;;;;;;;;;6200817;28;20046;-84
2022/10/04 01:09:09;;;;;;;29.30;8.07;;;;;;;;;;6198789;28;20049;-84
2022/10/04 01:12:31;;;;;;;22.02;7.40;;;;;;;;;;6112721;28;20537;-85
2022/10/04 01:15:51;;;;;;;35.58;8.77;;;;;;;;;;6215869;28;20086;-83
2022/10/04 01:18:54;;;;;;;32.92;7.80;;;;;;;;;;6219781;28;20052;-83
2022/10/04 01:22:29;;;;;;;37.83;8.30;;;;;;;;;;6219271;28;20038;-84
2022/10/04 01:25:46;;;;;;;27.48;7.57;;;;;;;;;;6200517;28;20057;-85
2022/10/04 01:28:48;;;;;;;34.03;8.07;;;;;;;;;;6205454;28;20585;-84
2022/10/04 01:32:04;;;;;;;35.47;7.07;;;;;;;;;;6200466;28;20050;-86
2022/10/04 01:35:23;;;;;;;47.03;8.20;;;;;;;;;;6178082;28;20080;-85
2022/10/04 01:38:32;;;;;;;;;;;;;;;;;;6213043;28;20053;-84
2022/10/04 01:42:14;;;;;;;15.30;7.05;;;;;;;;;;6189993;28;20364;-84
2022/10/04 01:45:37;;;;;;;24.42;7.78;;;;;;;;;;6221565;28;20040;-85
2022/10/04 01:48:42;;;;;;;30.63;9.23;;;;;;;;;;6240568;28;20054;-85
2022/10/04 01:51:55;;;;;;;20.52;7.18;;;;;;;;;;6228201;28;20398;-84
2022/10/04 01:55:11;;;;;;;36.00;8.20;;;;;;;;;;6208923;28;20058;-84
2022/10/04 01:58:21;;;;;;;37.15;7.65;;;;;;;;;;6216153;28;20044;-85
2022/10/04 02:01:37;;;;;;;20.60;6.88;;;;;;;;;;6213848;28;20042;-84
2022/10/04 02:04:40;;;;;;;31.88;7.45;;;;;;;;;;6211510;28;20048;-84
2022/10/04 02:07:43;;;;;;;19.77;6.72;;;;;;;;;;6195158;28;20054;-84
2022/10/04 02:10:48;;;;;;;28.42;6.60;;;;;;;;;;6182550;28;20050;-83
2022/10/04 02:18:37;;;;;;;25.30;7.10;;;;;;;;;;6156144;28;20038;-85
2022/10/04 02:21:39;;;;;;;21.10;7.53;;;;;;;;;;6236821;28;20046;-84
2022/10/04 02:24:44;;;;;;;31.60;7.70;;;;;;;;;;6223474;28;20128;-84
2022/10/04 02:27:46;;;;;;;33.42;7.93;;;;;;;;;;6223374;28;20106;-85
2022/10/04 02:34:11;;;;;;;18.40;7.65;;;;;;;;;;6225556;28;20058;-85
2022/10/04 02:37:14;;;;;;;22.40;7.45;;;;;;;;;;6223578;28;20049;-85
2022/10/04 02:40:20;;;;;;;18.48;7.55;;;;;;;;;;6208453;28;20049;-86
2022/10/04 02:43:27;;;;;;;25.20;7.15;;;;;;;;;;6213618;28;20135;-85
2022/10/04 02:46:41;;;;;;;23.73;7.85;;;;;;;;;;6210884;28;20051;-85
2022/10/04 02:49:47;;;;;;;;;;;;;;;;;;6214606;28;20033;-84
2022/10/04 02:52:58;;;;;;;28.10;7.03;;;;;;;;;;6200608;28;19926;-84
2022/10/04 02:56:10;;;;;;;18.42;6.95;;;;;;;;;;6173688;28;20041;-84
2022/10/04 02:59:15;;;;;;;32.55;7.32;;;;;;;;;;6208681;28;20038;-84
2022/10/04 03:02:23;;;;;;;76.00;9.13;;;;;;;;;;6202466;28;20045;-84
2022/10/04 03:05:30;;;;;;;;;;;;;;;;;;6212169;28;20125;-84
2022/10/04 03:08:53;;;;;;;39.80;7.28;;;;;;;;;;6185365;28;20005;-83
2022/10/04 03:11:55;;;;;;;18.42;5.95;;;;;;;;;;6192022;28;20038;-85
2022/10/04 03:14:57;;;;;;;10.73;5.35;;;;;;;;;;6225318;28;20045;-84
2022/10/04 03:17:59;;;;;;;22.25;7.03;;;;;;;;;;6210946;28;20049;-84
2022/10/04 03:21:14;;;;;;;;;;;;;;;;;;;;;
2022/10/04 03:24:26;;;;;;;25.70;8.73;;;;;;;;;;6213404;28;20045;-85
2022/10/04 03:27:32;;;;;;;24.33;7.15;;;;;;;;;;6201681;28;20061;-84
2022/10/04 03:30:35;;;;;;;12.23;6.43;;;;;;;;;;6199704;28;20058;-85
2022/10/04 03:33:37;;;;;;;10.10;6.37;;;;;;;;;;6209404;28;20050;-84
2022/10/04 03:36:39;;;;;;;34.75;6.90;;;;;;;;;;6211295;28;20046;-86
2022/10/04 03:39:46;;;;;;;12.23;6.07;;;;;;;;;;6215228;28;20049;-83
2022/10/04 03:42:51;;;;;;;23.33;6.53;;;;;;;;;;6192653;28;20411;-85
2022/10/04 03:46:08;;;;;;;36.35;6.85;;;;;;;;;;6164255;28;20061;-85
2022/10/04 03:49:32;;;;;;;35.10;9.00;;;;;;;;;;6209052;28;20048;-83
2022/10/04 03:52:36;;;;;;;45.20;7.28;;;;;;;;;;6200521;28;20055;-83
2022/10/04 03:55:43;;;;;;;16.83;6.70;;;;;;;;;;6218704;28;20065;-83
2022/10/04 03:58:45;;;;;;;26.60;6.68;;;;;;;;;;6200361;28;20129;-84
2022/10/04 04:02:00;;;;;;;38.57;6.77;;;;;;;;;;6183322;28;20034;-84
2022/10/04 04:05:10;;;;;;;28.83;7.95;;;;;;;;;;6194805;28;20125;-83
2022/10/04 04:08:33;;;;;;;22.30;6.82;;;;;;;;;;6216055;28;20087;-84
2022/10/04 04:11:35;;;;;;;16.30;6.83;;;;;;;;;;6205493;28;20042;-84
2022/10/04 04:14:39;;;;;;;16.73;6.47;;;;;;;;;;6194576;28;20040;-84
2022/10/04 04:17:54;;;;;;;10.85;5.80;;;;;;;;;;6177232;28;20049;-84
2022/10/04 04:21:23;;;;;;;12.02;6.32;;;;;;;;;;6114887;28;20485;-84
2022/10/04 04:24:31;;;;;;;18.35;6.55;;;;;;;;;;6170281;28;20507;-85
2022/10/04 04:27:36;;;;;;;12.70;6.57;;;;;;;;;;6217889;28;20042;-84
2022/10/04 04:30:42;;;;;;;18.90;9.95;;;;;;;;;;6227827;28;20589;-83
2022/10/04 04:33:47;;;;;;;20.77;10.57;;;;;;;;;;6210204;28;20068;-84
2022/10/04 04:40:39;;;;;;;10.60;6.22;;;;;;;;;;6200152;28;20123;-84
2022/10/04 04:43:55;;;;;;;9.45;5.57;;;;;;;;;;6159933;28;20185;-84
2022/10/04 04:47:11;;;;;;;15.40;8.70;;;;;;;;;;6152344;28;20062;-84
2022/10/04 04:50:39;;;;;;;15.38;7.65;;;;;;;;;;6070610;28;20635;-83
2022/10/04 04:57:37;;;;;;;;;;;;;;;;;;6154564;28;20065;-83
2022/10/04 05:00:58;;;;;;;33.95;15.55;;;;;;;;;;6127439;28;19923;-84
2022/10/04 05:04:11;;;;;;;44.38;19.65;;;;;;;;;;6146179;28;20058;-83
2022/10/04 05:07:18;;;;;;;22.40;11.60;;;;;;;;;;6151157;28;20070;-83
2022/10/04 05:10:29;;;;;;;19.27;9.88;;;;;;;;;;6145729;28;20054;-85
2022/10/04 05:13:41;;;;;;;9.55;6.43;;;;;;;;;;6110029;29;20047;-84
2022/10/04 05:16:53;;;;;;;11.93;6.57;;;;;;;;;;6118346;28;20609;-85
2022/10/04 05:19:58;;;;;;;13.15;8.20;;;;;;;;;;6152283;28;20051;-84
2022/10/04 05:22:59;;;;;;;11.93;8.00;;;;;;;;;;6131258;28;20043;-83
2022/10/04 05:26:03;;;;;;;10.10;6.20;;;;;;;;;;6146461;28;20042;-84
2022/10/04 05:29:14;;;;;;;11.35;6.80;;;;;;;;;;6136214;28;20051;-85
2022/10/04 05:32:31;;;;;;;10.77;6.38;;;;;;;;;;6139705;28;20050;-86
2022/10/04 05:36:08;;;;;;;10.63;6.30;;;;;;;;;;6150818;28;20260;-85
2022/10/04 05:39:39;;;;;;;12.85;8.07;;;;;;;;;;6115411;28;20110;-84
2022/10/04 05:42:46;;;;;;;10.60;7.05;;;;;;;;;;6128936;28;20040;-85
2022/10/04 05:46:25;;;;;;;9.90;5.90;;;;;;;;;;6140957;28;20059;-86
2022/10/04 05:49:33;;;;;;;12.73;6.47;;;;;;;;;;6119689;29;20059;-85
2022/10/04 05:53:08;;;;;;;12.43;8.27;;;;;;;;;;6120430;28;20979;-86
2022/10/04 05:56:29;;;;;;;11.70;7.10;;;;;;;;;;6131881;28;20055;-84
2022/10/04 05:59:31;;;;;;;10.27;6.70;;;;;;;;;;6128326;28;20071;-84
2022/10/04 06:02:59;;;;;;;15.57;8.52;;;;;;;;;;6128461;29;20059;-84
2022/10/04 06:06:15;;;;;;;12.35;7.30;;;;;;;;;;6100042;28;20054;-86
2022/10/04 06:09:38;;;;;;;12.40;8.00;;;;;;;;;;6123406;28;20051;-85
2022/10/04 06:13:00;;;;;;;15.88;8.48;;;;;;;;;;6143167;28;20757;-84
2022/10/04 06:16:35;;;;;;;11.30;7.53;;;;;;;;;;6067475;28;20078;-86
2022/10/04 06:20:07;;;;;;;13.75;7.75;;;;;;;;;;6171126;28;20035;-87
2022/10/04 06:23:17;;;;;;;16.80;8.55;;;;;;;;;;6166347;28;20106;-85
2022/10/04 06:26:46;;;;;;;14.90;8.43;;;;;;;;;;6133925;28;20046;-85
2022/10/04 06:30:12;;;;;;;12.00;7.15;;;;;;;;;;6125598;28;20118;-84
2022/10/04 06:33:28;;;;;;;9.90;6.18;;;;;;;;;;6138797;28;20047;-85
2022/10/04 06:36:43;;;;;;;12.32;6.40;;;;;;;;;;6134748;28;20552;-84
2022/10/04 06:40:04;;;;;;;13.05;7.18;;;;;;;;;;6118220;28;20531;-86
2022/10/04 06:43:42;;;;;;;12.50;7.15;;;;;;;;;;6099808;29;20052;-85
2022/10/04 06:46:52;;;;;;;12.90;7.10;;;;;;;;;;6161991;23;20058;31
2022/10/04 06:50:32;;;;;;;39.38;8.88;;;;;;;;;;6144993;28;20173;-78
2022/10/04 06:53:46;;;;;;;11.25;6.43;;;;;;;;;;6145397;28;20133;-80
2022/10/04 06:56:47;;;;;;;;;;;;;;;;;;6164216;28;20814;-81
2022/10/04 07:00:21;;;;;;;13.90;7.10;;;;;;;;;;6173124;28;19922;-79
2022/10/04 07:03:31;;;;;;;15.02;8.18;;;;;;;;;;6161715;28;20054;-81
2022/10/04 07:06:46;;;;;;;19.38;10.18;;;;;;;;;;6160834;28;20050;-80
2022/10/04 07:09:52;;;;;;;13.63;8.70;;;;;;;;;;6167649;28;20042;-80
2022/10/04 07:13:02;;;;;;;15.20;8.80;;;;;;;;;;6174048;28;20050;-78
2022/10/04 07:16:28;;;;;;;11.40;6.53;;;;;;;;;;6177264;28;20358;-77
2022/10/04 07:19:35;;;;;;;17.05;7.15;;;;;;;;;;6167595;28;20046;-80
2022/10/04 07:22:46;;;;;;;13.93;7.78;;;;;;;;;;6148540;28;20042;-81
2022/10/04 07:25:54;;;;;;;11.38;6.60;;;;;;;;;;6148828;28;20042;-80
2022/10/04 07:32:25;;;;;;;11.10;6.72;;;;;;;;;;6143609;28;20042;-80
2022/10/04 07:35:38;;;;;;;16.35;7.22;;;;;;;;;;6161539;28;20042;-79
2022/10/04 07:38:49;;;;;;;11.18;6.88;;;;;;;;;;6163666;28;20042;-79
2022/10/04 07:41:54;;;;;;;11.43;6.30;;;;;;;;;;6142001;28;20459;-80
2022/10/04 07:45:14;;;;;;;11.43;6.10;;;;;;;;;;6126426;28;21412;-81
2022/10/04 07:48:22;;;;;;;12.27;7.60;;;;;;;;;;6138184;28;20053;-79
2022/10/04 07:51:38;;;;;;;12.55;8.32;;;;;;;;;;6141536;28;20057;-81
2022/10/04 07:54:49;;;;;;;14.27;9.02;;;;;;;;;;6153409;28;20097;-80
2022/10/04 07:58:18;;;;;;;15.65;8.80;;;;;;;;;;6158473;28;20180;-79
2022/10/04 08:01:44;;;;;;;11.18;7.63;;;;;;;;;;6152545;28;20115;-79
2022/10/04 08:04:54;;;;;;;13.68;8.20;;;;;;;;;;6147591;28;20054;-80
2022/10/04 08:08:29;;;;;;;10.20;7.25;;;;;;;;;;6170639;28;20418;-80
2022/10/04 08:11:42;;;;;;;12.82;7.43;;;;;;;;;;6157803;28;20050;-79
2022/10/04 08:15:04;;;;;;;11.10;6.60;;;;;;;;;;6130433;28;20054;-80
2022/10/04 08:18:24;;;;;;;11.13;5.93;;;;;;;;;;6165555;28;20134;-81
2022/10/04 08:21:35;;;;;;;7.60;6.03;;;;;;;;;;6171432;28;20459;-79
2022/10/04 08:25:03;;;;;;;8.23;5.85;;;;;;;;;;6151836;28;20231;-79
2022/10/04 08:31:52;;;;;;;7.07;5.38;;;;;;;;;;6168447;28;20080;-79
2022/10/04 08:35:31;;;;;;;9.50;5.80;;;;;;;;;;6171051;28;20053;-79
2022/10/04 08:39:08;;;;;;;7.55;5.60;;;;;;;;;;6127630;28;20141;-81
2022/10/04 08:42:51;;;;;;;9.23;5.53;;;;;;;;;;5992314;28;20052;-80
2022/10/04 08:46:31;;;;;;;6.80;5.00;;;;;;;;;;6117333;28;20042;-79
2022/10/04 08:49:52;;;;;;;7.05;5.20;;;;;;;;;;6158944;28;20054;-79
2022/10/04 08:53:31;;;;;;;10.35;5.50;;;;;;;;;;6166639;28;20100;-80
2022/10/04 08:56:51;;;;;;;9.38;5.20;;;;;;;;;;6166641;28;20169;-80
2022/10/04 09:00:14;;;;;;;6.50;4.82;;;;;;;;;;6156908;28;20054;-80
2022/10/04 09:03:25;;;;;;;7.70;5.30;;;;;;;;;;6157869;28;20123;-79
2022/10/04 09:06:51;;;;;;;8.00;4.88;;;;;;;;;;6168844;28;20126;-78
2022/10/04 09:10:21;;;;;;;6.18;4.88;;;;;;;;;;6132672;28;20134;-78
2022/10/04 09:13:44;;;;;;;7.15;5.00;;;;;;;;;;6160441;28;20072;-78
2022/10/04 09:16:54;;;;;;;7.03;5.18;;;;;;;;;;6139132;28;20038;-78
2022/10/04 09:20:20;;;;;;;7.38;4.97;;;;;;;;;;6152711;28;20107;-77
2022/10/04 09:24:00;;;;;;;7.50;4.72;;;;;;;;;;6166532;28;20047;-79
2022/10/04 09:27:21;;;;;;;;;;;;;;;;;;6154240;28;20132;-79
2022/10/04 09:30:57;;;;;;;8.18;4.47;;;;;;;;;;6166346;28;19959;-79
2022/10/04 09:34:08;;;;;;;7.20;4.70;;;;;;;;;;6165534;28;20054;-80
2022/10/04 09:37:19;;;;;;;9.30;4.60;;;;;;;;;;6166685;28;20057;-79
2022/10/04 09:40:39;;;;;;;5.60;4.55;;;;;;;;;;6146859;28;20065;-79
2022/10/04 09:44:04;;;;;;;7.38;4.80;;;;;;;;;;6145554;28;20095;-78
2022/10/04 09:47:39;;;;;;;6.43;4.70;;;;;;;;;;6159281;28;20454;-79
2022/10/04 09:51:06;;;;;;;5.82;3.67;;;;;;;;;;6137241;28;20119;-80
2022/10/04 09:54:27;;;;;;;6.78;3.30;;;;;;;;;;6148435;28;20061;-79
2022/10/04 09:57:54;;;;;;;6.25;3.17;;;;;;;;;;6166181;28;20069;-81
2022/10/04 10:01:27;;;;;;;7.00;3.47;;;;;;;;;;6161085;28;20708;-77
2022/10/04 10:04:39;;;;;;;7.30;3.00;;;;;;;;;;6164980;28;20065;-80
2022/10/04 10:07:49;;;;;;;6.17;3.40;;;;;;;;;;6164361;28;20066;-81
2022/10/04 10:15:18;;;;;;;5.60;2.90;;;;;;;;;;6170606;28;20054;-78
2022/10/04 10:18:52;;;;;;;4.18;2.80;;;;;;;;;;6069404;29;20060;-80
2022/10/04 10:22:11;;;;;;;6.47;2.65;;;;;;;;;;6081170;28;20137;-79
2022/10/04 10:25:55;;;;;;;6.80;2.88;;;;;;;;;;6165040;28;20046;-80
2022/10/04 10:29:22;;;;;;;4.15;2.45;;;;;;;;;;6135138;28;20122;-80
2022/10/04 10:32:24;;;;;;;7.22;2.78;;;;;;;;;;6176210;28;20210;-79
2022/10/04 10:35:57;;;;;;;4.20;2.42;;;;;;;;;;6139322;28;20073;-79
2022/10/04 10:39:17;;;;;;;;;;;;;;;;;;6169350;28;20519;-79
2022/10/04 10:42:31;;;;;;;4.10;2.30;;;;;;;;;;6154518;28;19921;-79
2022/10/04 10:45:39;;;;;;;5.22;2.20;;;;;;;;;;6143392;28;20161;-80
2022/10/04 10:49:37;;;;;;;5.43;2.20;;;;;;;;;;6136981;28;20419;-79
2022/10/04 10:53:30;;;;;;;3.77;2.27;;;;;;;;;;6162697;28;20465;-79
2022/10/04 10:57:16;;;;;;;4.17;2.30;;;;;;;;;;6129911;28;20469;-78
2022/10/04 11:00:49;;;;;;;2.58;2.30;;;;;;;;;;6120652;28;20120;-79
2022/10/04 11:04:21;;;;;;;4.05;2.53;;;;;;;;;;6144128;28;20061;-78
2022/10/04 11:07:54;;;;;;;5.10;2.58;;;;;;;;;;6148806;28;20050;-78
2022/10/04 11:11:27;;;;;;;6.55;2.10;;;;;;;;;;6146567;28;20071;-79
2022/10/04 11:14:54;;;;;;;2.80;2.20;;;;;;;;;;6145582;28;20058;-79
2022/10/04 11:18:11;;;;;;;4.90;2.50;;;;;;;;;;6161376;28;20065;-78
2022/10/04 11:21:28;;;;;;;3.78;2.25;;;;;;;;;;6166074;28;20155;-78
2022/10/04 11:24:43;;;;;;;5.57;2.33;;;;;;;;;;6159984;28;20141;-78
2022/10/04 11:28:04;;;;;;;4.30;2.33;;;;;;;;;;6144050;28;20057;-78
2022/10/04 11:31:12;;;;;;;4.90;2.55;;;;;;;;;;6142832;28;20073;-78
2022/10/04 11:34:17;;;;;;;5.38;2.53;;;;;;;;;;6164713;28;20109;-78
2022/10/04 11:37:52;;;;;;;6.38;2.40;;;;;;;;;;6165571;23;20709;-78
2022/10/04 11:41:12;;;;;;;2.72;2.40;;;;;;;;;;6117371;28;20047;-78
2022/10/04 11:44:30;;;;;;;2.83;2.53;;;;;;;;;;6135929;28;20086;-78
2022/10/04 11:47:53;;;;;;;4.63;2.67;;;;;;;;;;6108446;28;20046;-79
2022/10/04 11:51:31;;;;;;;6.28;2.70;;;;;;;;;;6141014;28;20057;-79
2022/10/04 11:54:48;;;;;;;4.35;2.70;;;;;;;;;;6115381;28;20113;-78
2022/10/04 11:57:57;;;;;;;6.65;2.95;;;;;;;;;;6120350;28;20074;-78
2022/10/04 12:01:29;;;;;;;5.28;2.40;;;;;;;;;;6136027;28;20045;-79
2022/10/04 12:04:52;;;;;;;4.28;2.78;;;;;;;;;;6125332;28;20133;-78
2022/10/04 12:08:09;;;;;;;4.75;2.42;;;;;;;;;;6107208;28;20503;-77
2022/10/04 12:12:35;;;;;;;5.57;2.60;;;;;;;;;;6128588;28;20438;-78
2022/10/04 12:15:12;;;;;;;7.00;3.55;;;;;;;;;;6143466;28;20543;-77
2022/10/04 12:18:27;;;;;;;3.92;2.78;;;;;;;;;;6128141;28;20133;-77
2022/10/04 12:21:51;;;;;;;5.45;2.70;;;;;;;;;;6142168;28;20051;-78
2022/10/04 12:25:19;;;;;;;4.20;2.90;;;;;;;;;;6144131;28;20131;-77
2022/10/04 12:28:58;;;;;;;5.07;3.03;;;;;;;;;;6147350;28;20097;-77
2022/10/04 12:32:09;;;;;;;3.15;2.50;;;;;;;;;;6145904;28;20375;-78
2022/10/04 12:35:11;;;;;;;4.65;3.00;;;;;;;;;;6144896;28;20061;-77
2022/10/04 12:38:24;;;;;;;6.45;3.30;;;;;;;;;;6138633;28;20155;-78
2022/10/04 12:41:35;;;;;;;5.45;3.10;;;;;;;;;;6126596;28;20055;-78
2022/10/04 12:45:04;;;;;;;6.80;3.03;;;;;;;;;;6135076;23;20614;-77
2022/10/04 12:48:37;;;;;;;6.85;2.72;;;;;;;;;;6081412;29;20055;-78
2022/10/04 12:52:09;;;;;;;5.68;3.15;;;;;;;;;;6097440;29;20051;-77
2022/10/04 12:55:42;;;;;;;7.65;3.20;;;;;;;;;;6099842;29;20052;-78
2022/10/04 12:59:08;;;;;;;6.70;2.95;;;;;;;;;;6098695;29;20488;-78
2022/10/04 13:02:29;;;;;;;6.65;3.10;;;;;;;;;;6073996;29;20047;-79
2022/10/04 13:05:30;;;;;;;7.38;3.03;;;;;;;;;;6086153;29;20535;-78
2022/10/04 13:08:59;;;;;;;5.18;3.15;;;;;;;;;;6078208;29;20138;-76
2022/10/04 13:12:12;;;;;;;5.13;2.75;;;;;;;;;;6093268;29;20061;-79
2022/10/04 13:15:28;;;;;;;7.15;3.15;;;;;;;;;;6088489;29;20048;-78
2022/10/04 13:19:12;;;;;;;5.28;3.15;;;;;;;;;;6093905;29;20066;-78
2022/10/04 13:22:32;;;;;;;6.22;3.20;;;;;;;;;;6091973;29;21210;-77
2022/10/04 13:26:03;;;;;;;5.28;3.10;;;;;;;;;;6090041;29;20048;-76
2022/10/04 13:29:17;;;;;;;6.00;3.28;;;;;;;;;;6090350;29;20154;-77
2022/10/04 13:32:29;;;;;;;4.10;2.92;;;;;;;;;;6091062;29;20054;-77
2022/10/04 13:35:52;;;;;;;;;;;;;;;;;;6090695;29;20491;-78
2022/10/04 13:39:00;;;;;;;6.10;2.80;;;;;;;;;;6057023;29;20089;-77
2022/10/04 13:42:32;;;;;;;3.63;2.78;;;;;;;;;;6092739;29;20074;-78
2022/10/04 13:45:39;;;;;;;6.95;3.10;;;;;;;;;;6062403;29;20729;-76
2022/10/04 13:48:55;;;;;;;3.45;2.70;;;;;;;;;;6102300;29;20187;-77
2022/10/04 13:59:26;;;;;;;4.75;3.13;;;;;;;;;;6100869;29;20491;-77
2022/10/04 14:03:06;;;;;;;4.78;2.88;;;;;;;;;;6094969;29;20055;-77
2022/10/04 14:06:46;;;;;;;7.05;3.10;;;;;;;;;;6093433;29;20048;-77
2022/10/04 14:10:25;;;;;;;5.38;3.08;;;;;;;;;;6086418;29;20130;-78
2022/10/04 14:13:47;;;;;;;4.30;3.45;;;;;;;;;;6079511;29;20115;-78
2022/10/04 14:17:05;;;;;;;6.50;3.38;;;;;;;;;;6090713;29;20577;-79
2022/10/04 14:20:41;;;;;;;5.45;3.20;;;;;;;;;;6099229;29;20047;-77
2022/10/04 14:24:04;;;;;;;7.22;3.13;;;;;;;;;;6099591;29;20067;-77
2022/10/04 14:27:42;;;;;;;5.30;3.15;;;;;;;;;;6093672;29;20094;-79
2022/10/04 14:31:18;;;;;;;5.45;3.40;;;;;;;;;;6097489;29;20114;-79
2022/10/04 14:34:24;;;;;;;8.15;3.47;;;;;;;;;;6082563;29;20047;-78
2022/10/04 14:38:03;;;;;;;4.55;3.30;;;;;;;;;;6090518;29;20055;-78
2022/10/04 14:41:46;;;;;;;6.78;3.40;;;;;;;;;;6084461;29;20588;-79
2022/10/04 14:44:57;;;;;;;;;;;;;;;;;;6102293;29;20076;-78
2022/10/04 14:48:07;;;;;;;3.78;2.90;;;;;;;;;;6097755;29;19938;-78
2022/10/04 14:51:25;;;;;;;5.20;2.80;;;;;;;;;;6106308;29;20047;-79
2022/10/04 14:54:41;;;;;;;6.70;3.28;;;;;;;;;;6101475;29;20052;-78
2022/10/04 14:58:12;;;;;;;6.95;3.03;;;;;;;;;;6104137;29;20051;-77
2022/10/04 15:01:19;;;;;;;6.32;2.97;;;;;;;;;;6098951;29;21877;-78
2022/10/04 15:04:36;;;;;;;4.72;2.60;;;;;;;;;;6095884;29;20054;-75
2022/10/04 15:07:45;;;;;;;5.20;3.05;;;;;;;;;;6096770;29;20135;-78
2022/10/04 15:10:51;;;;;;;3.95;2.58;;;;;;;;;;6093487;29;20087;-76
2022/10/04 15:13:56;;;;;;;3.67;2.65;;;;;;;;;;6081610;29;24074;-77
2022/10/04 15:17:02;;;;;;;5.55;2.67;;;;;;;;;;6100973;28;20054;-76
2022/10/04 15:20:09;;;;;;;4.65;2.88;;;;;;;;;;6105072;29;20142;-77
2022/10/04 15:23:12;;;;;;;5.45;2.90;;;;;;;;;;6093165;29;20043;-77
2022/10/04 15:26:19;;;;;;;5.60;3.00;;;;;;;;;;6097453;29;20052;-77
2022/10/04 15:29:28;;;;;;;4.03;2.45;;;;;;;;;;6093166;29;20048;-76
2022/10/04 15:33:05;;;;;;;3.85;2.63;;;;;;;;;;6094151;29;20050;-76
2022/10/04 15:36:29;;;;;;;6.53;2.60;;;;;;;;;;6094137;29;20341;-77
2022/10/04 15:39:58;;;;;;;5.72;3.00;;;;;;;;;;6088473;29;20048;-75
2022/10/04 15:43:12;;;;;;;5.38;2.65;;;;;;;;;;6083874;29;20056;-76
2022/10/04 15:46:30;;;;;;;4.57;2.67;;;;;;;;;;6092354;29;20091;-74
2022/10/04 15:50:11;;;;;;;6.43;2.88;;;;;;;;;;6098282;29;20426;-78
2022/10/04 15:54:14;;;;;;;6.15;2.67;;;;;;;;;;6091815;29;20534;-77
2022/10/04 15:57:34;;;;;;;6.30;2.60;;;;;;;;;;6061637;29;20048;-79
2022/10/04 16:01:00;;;;;;;7.38;2.88;;;;;;;;;;6101257;28;20052;-76
2022/10/04 16:04:20;;;;;;;5.72;2.50;;;;;;;;;;6074988;29;20058;-77
2022/10/04 16:07:29;;;;;;;4.03;2.70;;;;;;;;;;6093385;29;20086;-76
2022/10/04 16:11:05;;;;;;;3.35;2.80;;;;;;;;;;6093000;29;20052;-77
2022/10/04 16:14:25;;;;;;;5.28;3.33;;;;;;;;;;6094841;29;20102;-78
2022/10/04 16:17:35;;;;;;;3.67;2.88;;;;;;;;;;6097855;29;20521;-77
2022/10/04 16:21:05;;;;;;;4.63;2.92;;;;;;;;;;6100640;29;20692;-76
2022/10/04 16:24:19;;;;;;;6.30;2.95;;;;;;;;;;6093957;29;20516;-78
2022/10/04 16:27:56;;;;;;;5.88;3.10;;;;;;;;;;6081391;29;20048;-77
2022/10/04 16:31:26;;;;;;;9.20;3.03;;;;;;;;;;6102865;29;20524;-77
2022/10/04 16:34:54;;;;;;;7.38;4.10;;;;;;;;;;6117235;29;20044;-75
2022/10/04 16:38:13;;;;;;;8.48;4.25;;;;;;;;;;6130834;29;20070;-77
2022/10/04 16:41:35;;;;;;;7.00;4.53;;;;;;;;;;6131928;28;20067;-78
2022/10/04 16:44:55;;;;;;;5.97;3.53;;;;;;;;;;6105868;28;20432;-77
2022/10/04 16:48:02;;;;;;;6.40;3.38;;;;;;;;;;6104243;29;20056;-76
2022/10/04 16:51:04;;;;;;;5.72;3.85;;;;;;;;;;6093017;29;20059;-77
2022/10/04 16:54:15;;;;;;;6.43;4.97;;;;;;;;;;6102659;29;20047;-76
2022/10/04 16:57:26;;;;;;;6.65;4.00;;;;;;;;;;6107071;28;20150;-77
2022/10/04 17:00:35;;;;;;;4.40;3.50;;;;;;;;;;6099674;29;20070;-76
2022/10/04 17:03:50;;;;;;;9.70;5.40;;;;;;;;;;6099650;29;20150;-77
2022/10/04 17:07:12;;;;;;;15.93;8.80;;;;;;;;;;6105421;29;20043;-76
2022/10/04 17:10:37;;;;;;;15.50;7.95;;;;;;;;;;6085161;29;20506;-76
2022/10/04 17:14:00;;;;;;;20.70;9.90;;;;;;;;;;6105310;29;20795;-76
2022/10/04 17:17:20;;;;;;;;;;;;;;;;;;6085377;29;20552;-78
2022/10/04 17:20:40;;;;;;;8.80;5.60;;;;;;;;;;6101754;29;20002;-78
2022/10/04 17:24:15;;;;;;;11.30;8.20;;;;;;;;;;6097409;29;20119;-78
2022/10/04 17:27:37;;;;;;;14.82;10.65;;;;;;;;;;6086467;29;20052;-80
2022/10/04 17:31:12;;;;;;;6.15;4.22;;;;;;;;;;6095919;29;20052;-77
2022/10/04 17:34:45;;;;;;;6.10;4.15;;;;;;;;;;6094350;28;20063;-76
2022/10/04 17:38:03;;;;;;;8.98;5.40;;;;;;;;;;6106748;29;20292;-78
2022/10/04 17:41:23;;;;;;;10.90;6.75;;;;;;;;;;6099777;29;20052;-76
2022/10/04 17:44:46;;;;;;;13.13;7.75;;;;;;;;;;6094323;28;20051;-77
2022/10/04 17:55:23;;;;;;;13.93;8.35;;;;;;;;;;6101359;29;20196;-78
2022/10/04 17:58:38;;;;;;;11.88;7.65;;;;;;;;;;6099053;29;20055;-77
2022/10/04 18:01:48;;;;;;;11.50;6.20;;;;;;;;;;6076829;29;20031;-76
2022/10/04 18:04:55;;;;;;;9.30;5.63;;;;;;;;;;6087918;29;20074;-76
2022/10/04 18:08:00;;;;;;;8.07;6.30;;;;;;;;;;6095551;29;20062;-76
2022/10/04 18:11:15;;;;;;;9.38;5.75;;;;;;;;;;6096873;29;20285;-77
2022/10/04 18:14:28;;;;;;;9.40;5.80;;;;;;;;;;6083101;29;20048;-77
2022/10/04 18:17:41;;;;;;;;;;;;;;;;;;6099579;29;20447;-76
2022/10/04 18:21:03;;;;;;;18.75;9.00;;;;;;;;;;6103217;29;19934;-81
2022/10/04 18:24:28;;;;;;;8.55;6.15;;;;;;;;;;6096411;29;20064;-77
2022/10/04 18:27:31;;;;;;;7.70;5.93;;;;;;;;;;6095126;29;20911;-78
2022/10/04 18:30:50;;;;;;;11.63;7.63;;;;;;;;;;6095943;29;20057;-77
2022/10/04 18:33:52;;;;;;;9.05;6.00;;;;;;;;;;6092637;29;20099;-77
2022/10/04 18:37:04;;;;;;;10.75;5.95;;;;;;;;;;6090924;29;20055;-78
2022/10/04 18:40:41;;;;;;;9.40;5.28;;;;;;;;;;6096877;29;20051;-77
2022/10/04 18:44:11;;;;;;;9.27;5.20;;;;;;;;;;6094441;29;20062;-77
2022/10/04 18:47:28;;;;;;;9.10;5.20;;;;;;;;;;6097625;29;22222;-78
2022/10/04 18:50:34;;;;;;;9.35;5.65;;;;;;;;;;6096583;29;20080;-80
2022/10/04 18:53:43;;;;;;;8.70;4.57;;;;;;;;;;6086939;29;20189;-80
2022/10/04 18:56:57;;;;;;;11.85;7.97;;;;;;;;;;6097631;29;20051;-78
2022/10/04 19:03:49;;;;;;;11.73;7.40;;;;;;;;;;6095631;29;20148;-76
2022/10/04 19:06:56;;;;;;;11.73;6.70;;;;;;;;;;6078289;29;20058;-77
2022/10/04 19:10:14;;;;;;;8.65;5.07;;;;;;;;;;6094133;29;20058;-77
2022/10/04 19:13:37;;;;;;;7.70;4.53;;;;;;;;;;6094360;29;20172;-77
2022/10/04 19:16:43;;;;;;;7.35;4.47;;;;;;;;;;6091353;29;20055;-77
2022/10/04 19:20:03;;;;;;;7.28;4.88;;;;;;;;;;6098320;28;20057;-79
2022/10/04 19:23:24;;;;;;;8.43;4.53;;;;;;;;;;6083203;29;20050;-77
2022/10/04 19:26:38;;;;;;;7.15;4.45;;;;;;;;;;6087936;29;20050;-76
2022/10/04 19:29:58;;;;;;;7.30;5.10;;;;;;;;;;6096600;29;20563;-75
2022/10/04 19:33:25;;;;;;;7.75;5.80;;;;;;;;;;6091155;29;20131;-78
2022/10/04 19:36:44;;;;;;;8.65;5.35;;;;;;;;;;6089849;29;20055;-76
2022/10/04 19:40:19;;;;;;;10.32;5.40;;;;;;;;;;6091780;29;20487;-77
2022/10/04 19:43:45;;;;;;;14.32;6.90;;;;;;;;;;6090908;29;21008;-77
2022/10/04 19:47:15;;;;;;;9.48;5.70;;;;;;;;;;6089930;29;20043;-76
2022/10/04 19:50:25;;;;;;;9.50;5.68;;;;;;;;;;6090186;29;20056;-77
2022/10/04 19:53:42;;;;;;;12.50;6.32;;;;;;;;;;6089147;29;20252;-78
2022/10/04 19:56:47;;;;;;;10.48;4.72;;;;;;;;;;6099931;29;20056;-80
2022/10/04 19:59:49;;;;;;;9.65;5.28;;;;;;;;;;6091783;29;20059;-78
2022/10/04 20:02:51;;;;;;;8.52;5.35;;;;;;;;;;6099394;29;20145;-76
2022/10/04 20:05:56;;;;;;;6.88;4.80;;;;;;;;;;6100017;29;20923;-77
2022/10/04 20:09:32;;;;;;;9.02;4.70;;;;;;;;;;6098974;29;20077;-80
2022/10/04 20:12:39;;;;;;;11.23;5.30;;;;;;;;;;6101500;29;20117;-77
2022/10/04 20:15:47;;;;;;;8.55;4.35;;;;;;;;;;6096924;29;21259;-77
2022/10/04 20:18:57;;;;;;;7.93;4.43;;;;;;;;;;6097987;29;20055;-77
2022/10/04 20:22:11;;;;;;;12.23;4.57;;;;;;;;;;6102775;29;20051;-78
2022/10/04 20:25:44;;;;;;;7.00;4.03;;;;;;;;;;6097466;29;20074;-77
2022/10/04 20:28:46;;;;;;;6.07;4.68;;;;;;;;;;6096428;29;20583;-77